Pagrindinis puslapis
METAR-TAF:

METAR-TAF

Oro uostai :

Badachosas, Ispanija

platuma: 38-53N, ilguma: 006-49W, Aukštis: 185 m

Dabartinis oras

Ataskaita buvo paskelbta 6 valandos ir 56 minutes, ne 19:00 UTC
Vėjas 3 kt iš Šiaurės/Šiaurės Vakarų
Temperatūra 24°C
Drėgmė 47%
Slėgis 1013 hPa
Matomumas 10 km arba daugiau
nėra debesų žemiau 1500 m ir nėra kamuolinių lietaus debesų

METAR: LEBZ 181900Z 34003KT CAVOK 24/12 Q1013

Laikas: 03:56 (01:56 UTC)

Prognozė

Ataskaita buvo paskelbta 5 valandos ir 56 minutes, ne 20:00 UTC
Prognozė galioja nuo 18 metu 21 UTC su 19 metu 21 UTC
Vėjas 3 kt nuo kintamojo kryptimis
Matomumas 10 km arba daugiau
nėra debesų žemiau 1500 m ir nėra kamuolinių lietaus debesų

TAF: LEBZ 182000Z 1821/1921 VRB03KT CAVOK TX25/1915Z TN15/1906Z

Orai ataskaitas ir orų prognozės (METAR, TAF).

turimą stotys yra geltonos ir raudonos taškus žemėlapyje.

Perkelti pele per norėdami pamatyti stoties vardą.

Tada spustelėkite, norėdami matyti oro stebėjimo ir prognozės.

Norėdami pakeisti žemėlapį: spustelėkite ant žalios mygtukų su juodo kryžiaus žemyn,; žalią mygtuką su brūkšneliu, jei norite nutolinti; arba žalių rodyklių gretimoms žemėlapius.


METAR-TAF: